Terminal Aerodrome Forecast
Issued by NWS

Home | Current Version | Previous Version | Text Only | Print | Product List | Glossary On
Versions: 1 2 3 4 5 6 7 8 9 10 11 12 13 14 15
029
FTUS43 KDLH 201725
TAFHYR
TAF
KHYR 201725Z 2018/2118 01007KT 2SM -DZ BR OVC008
     FM202200 36009KT 3SM BR VCSH OVC008
     FM210000 36009KT 4SM BR OVC008
     FM210900 34004KT P6SM BKN008
     FM211200 34004KT P6SM SCT010
     FM211400 35006KT P6SM FEW120=

USA.gov is the U.S. government's official web portal to all federal, state and local government web resources and services.